Time;durP1;ratioP1;P1;durP2;ratioP2;P2;SDS_P1;SDS_P2;PMS_P1;PMS_P2;Temp;Humidity;BMP_temperature;BMP_pressure;BME280_temperature;BME280_humidity;BME280_pressure;Samples;Min_cycle;Max_cycle;Signal;HPM_P1;HPM_P2
2021/06/17 00:01:25;;;;;;;9.05;4.93;;;;;;;16.15;68.19;97025.20;127739;1093;112384;-95
2021/06/17 00:03:57;;;;;;;6.80;4.85;;;;;;;16.12;68.32;97025.81;127830;1091;30027;-95
2021/06/17 00:06:28;;;;;;;5.98;5.00;;;;;;;16.13;68.15;97030.06;127747;1092;113524;-96
2021/06/17 00:09:00;;;;;;;8.25;5.43;;;;;;;16.00;68.31;97027.14;127841;1093;27919;-96
2021/06/17 00:11:32;;;;;;;9.08;5.43;;;;;;;16.02;68.39;97022.27;127727;1093;113685;-94
2021/06/17 00:14:04;;;;;;;7.50;5.20;;;;;;;16.10;68.73;97023.45;127827;1093;26798;-96
2021/06/17 00:16:35;;;;;;;8.35;5.83;;;;;;;16.16;68.40;97032.92;127807;1093;25809;-96
2021/06/17 00:19:07;;;;;;;6.60;4.25;;;;;;;15.97;68.46;97030.42;127822;1092;113500;-94
2021/06/17 00:21:38;;;;;;;6.45;4.95;;;;;;;15.90;68.60;97030.03;127909;1093;26296;-95
2021/06/17 00:24:10;;;;;;;7.75;5.10;;;;;;;15.89;68.96;97031.13;127769;1093;113505;-94
2021/06/17 00:26:42;;;;;;;6.80;4.75;;;;;;;15.99;68.96;97022.88;127826;1093;26303;-96
2021/06/17 00:29:13;;;;;;;6.33;4.55;;;;;;;16.06;68.54;97021.69;127767;1093;113702;-95
2021/06/17 00:31:44;;;;;;;8.20;5.18;;;;;;;15.90;68.62;97024.69;127852;1093;24632;-96
2021/06/17 00:34:18;;;;;;;6.10;4.65;;;;;;;15.79;68.90;97022.56;127881;1093;26187;-93
2021/06/17 00:36:49;;;;;;;7.98;5.00;;;;;;;15.82;69.08;97022.74;127738;1092;113528;-95
2021/06/17 00:39:21;;;;;;;7.45;5.28;;;;;;;15.88;69.16;97021.52;127869;1093;26729;-96
2021/06/17 00:41:52;;;;;;;6.53;4.78;;;;;;;15.88;69.17;97016.18;127735;1093;113535;-95
2021/06/17 00:44:24;;;;;;;7.88;4.98;;;;;;;15.93;69.20;97025.98;127853;1093;28138;-96
2021/06/17 00:46:55;;;;;;;8.35;4.75;;;;;;;15.95;69.04;97021.91;127819;1093;25067;-96
2021/06/17 00:49:27;;;;;;;6.38;4.78;;;;;;;15.94;68.96;97024.89;127757;1093;113304;-95
2021/06/17 00:51:59;;;;;;;6.83;4.35;;;;;;;15.83;69.12;97024.33;127795;1093;25919;-94
2021/06/17 00:54:33;;;;;;;9.18;4.70;;;;;;;15.85;69.34;97021.34;127733;1093;113984;-94
2021/06/17 00:57:07;;;;;;;7.00;4.95;;;;;;;15.88;69.20;97018.85;127867;1093;24663;-95
2021/06/17 00:59:39;;;;;;;7.03;4.25;;;;;;;15.93;69.29;97023.31;127814;1093;113666;-94
2021/06/17 01:02:11;;;;;;;6.03;4.35;;;;;;;15.90;69.29;97023.89;127854;1093;24254;-93
2021/06/17 01:04:43;;;;;;;6.85;4.80;;;;;;;15.81;69.10;97023.05;127854;1093;24092;-93
2021/06/17 01:07:24;;;;;;;7.75;4.90;;;;;;;15.61;69.36;97021.59;127793;1093;113698;-95
2021/06/17 01:10:05;;;;;;;7.23;4.83;;;;;;;15.50;69.72;97022.89;127938;1093;23716;-95
2021/06/17 01:12:50;;;;;;;6.08;4.60;;;;;;;15.54;69.95;97013.97;127838;1092;113715;-94
2021/06/17 01:15:23;;;;;;;6.20;4.78;;;;;;;15.65;70.07;97017.25;127834;1093;25838;-94
2021/06/17 01:18:02;;;;;;;7.93;4.50;;;;;;;15.65;69.92;97022.59;127764;1093;113740;-94
2021/06/17 01:20:40;;;;;;;7.65;4.33;;;;;;;15.63;70.01;97019.44;127631;1093;25638;-95
2021/06/17 01:23:41;;;;;;;6.45;4.53;;;;;;;15.63;69.68;97024.78;127755;1092;113971;-92
2021/06/17 01:26:21;;;;;;;9.48;4.90;;;;;;;15.51;69.63;97019.13;127895;1093;26340;-93
2021/06/17 01:28:56;;;;;;;6.28;4.58;;;;;;;15.30;70.01;97016.86;127910;1093;22803;-94
2021/06/17 01:31:32;;;;;;;7.50;4.85;;;;;;;15.20;70.43;97017.08;127770;1093;113453;-94
2021/06/17 01:34:04;;;;;;;7.18;5.03;;;;;;;15.23;70.74;97010.34;127859;1093;22975;-94
2021/06/17 01:36:40;;;;;;;7.38;5.15;;;;;;;15.22;70.99;97006.89;127726;1093;113582;-95
2021/06/17 01:39:15;;;;;;;9.18;4.80;;;;;;;15.22;70.62;97008.77;127851;1093;27869;-94
2021/06/17 01:41:50;;;;;;;6.70;4.80;;;;;;;15.11;70.94;97013.52;127764;1093;113707;-94
2021/06/17 01:44:24;;;;;;;7.35;4.85;;;;;;;15.07;71.12;97013.32;127867;1093;23570;-94
2021/06/17 01:46:57;;;;;;;7.03;3.95;;;;;;;15.15;71.58;97011.82;127878;1092;27659;-94
2021/06/17 01:49:29;;;;;;;6.70;5.13;;;;;;;15.24;71.48;97007.38;127744;1093;113316;-95
2021/06/17 01:52:01;;;;;;;5.10;3.85;;;;;;;15.16;70.94;97016.07;127877;1093;26605;-95
2021/06/17 01:54:33;;;;;;;5.20;4.13;;;;;;;15.07;71.03;97007.98;127735;1093;113643;-94
2021/06/17 01:57:05;;;;;;;7.88;5.00;;;;;;;14.95;71.37;97009.55;127859;1092;24398;-95
2021/06/17 01:59:39;;;;;;;7.60;5.00;;;;;;;14.95;71.67;96998.88;127816;1093;114362;-95
2021/06/17 02:02:13;;;;;;;6.28;4.33;;;;;;;14.93;72.02;97001.05;127786;1092;29146;-94
2021/06/17 02:04:48;;;;;;;7.33;4.33;;;;;;;14.87;71.93;96996.88;127875;1093;24088;-94
2021/06/17 02:07:21;;;;;;;7.65;5.13;;;;;;;14.91;72.53;96995.20;127725;1093;114006;-95
2021/06/17 02:09:54;;;;;;;6.85;4.80;;;;;;;14.87;71.99;96996.88;127879;1092;24245;-94
2021/06/17 02:12:26;;;;;;;5.20;4.43;;;;;;;14.81;72.36;97010.33;127825;1093;113487;-95
2021/06/17 02:14:58;;;;;;;6.18;4.48;;;;;;;14.99;72.79;96997.19;127875;1093;26048;-94
2021/06/17 02:17:31;;;;;;;7.28;4.93;;;;;;;15.10;72.61;96995.91;127763;1093;114316;-95
2021/06/17 02:20:05;;;;;;;6.45;4.65;;;;;;;15.21;72.65;96996.50;127944;1092;25314;-94
2021/06/17 02:22:42;;;;;;;7.75;5.00;;;;;;;15.27;71.83;96990.75;127937;1092;27132;-94
2021/06/17 02:25:17;;;;;;;7.23;4.65;;;;;;;15.43;72.11;96994.68;127753;1092;114049;-94
2021/06/17 02:27:54;;;;;;;7.05;4.60;;;;;;;15.24;71.81;96990.56;127881;1093;26646;-94
2021/06/17 02:30:31;;;;;;;8.28;4.38;;;;;;;15.17;71.57;96990.95;127870;1093;114006;-93
2021/06/17 02:33:08;;;;;;;6.68;4.53;;;;;;;14.97;71.53;96996.70;127895;1093;25481;-93
2021/06/17 02:35:43;;;;;;;7.13;3.90;;;;;;;14.92;71.98;96994.92;127788;1093;114772;-95
2021/06/17 02:38:17;;;;;;;8.08;5.10;;;;;;;14.79;72.10;96995.70;127859;1093;26834;-94
2021/06/17 02:40:51;;;;;;;6.43;4.57;;;;;;;14.71;72.43;96991.83;127877;1093;31948;-94
2021/06/17 02:43:23;;;;;;;5.55;4.68;;;;;;;14.74;73.25;96996.57;127776;1093;114310;-95
2021/06/17 02:45:55;;;;;;;7.75;5.13;;;;;;;14.81;73.01;96985.52;127889;1092;25055;-94
2021/06/17 02:48:27;;;;;;;7.08;4.68;;;;;;;14.84;73.31;96993.72;127684;1093;113729;-94
2021/06/17 02:51:00;;;;;;;9.33;5.03;;;;;;;14.89;73.05;96997.38;127895;1093;23708;-95
2021/06/17 02:53:32;;;;;;;10.30;4.43;;;;;;;14.94;73.18;96994.63;127793;1093;113724;-95
2021/06/17 02:56:11;;;;;;;7.53;5.30;;;;;;;14.84;73.25;96991.05;127854;1093;30033;-96
2021/06/17 02:59:01;;;;;;;5.78;4.60;;;;;;;14.87;73.84;97000.34;127865;1093;24546;-95
2021/06/17 03:01:41;;;;;;;8.57;5.13;;;;;;;14.98;73.52;97000.95;127820;1093;113766;-94
2021/06/17 03:04:17;;;;;;;8.95;4.98;;;;;;;15.04;73.68;97007.77;127879;1093;27252;-94
2021/06/17 03:06:53;;;;;;;7.23;4.53;;;;;;;15.13;73.60;96998.77;127789;1093;113672;-94
2021/06/17 03:09:33;;;;;;;6.80;4.88;;;;;;;15.22;73.68;96996.20;127843;1093;27166;-93
2021/06/17 03:12:06;;;;;;;7.00;4.93;;;;;;;15.33;73.67;97005.56;127750;1093;113593;-93
2021/06/17 03:14:41;;;;;;;5.28;4.25;;;;;;;15.44;73.16;96998.93;127930;1093;27669;-94
2021/06/17 03:17:14;;;;;;;8.78;5.90;;;;;;;15.51;72.91;97011.90;127762;1092;114582;-93
2021/06/17 03:19:49;;;;;;;8.58;4.73;;;;;;;15.53;72.73;97006.25;127876;1093;32662;-94
2021/06/17 03:22:23;;;;;;;6.48;5.33;;;;;;;15.56;72.68;97009.11;127930;1093;24328;-96
2021/06/17 03:25:01;;;;;;;7.33;5.68;;;;;;;15.58;72.47;97012.27;128798;1092;113043;-94
2021/06/17 03:27:34;;;;;;;7.63;5.90;;;;;;;15.51;72.65;97011.11;127856;1092;26059;-94
2021/06/17 03:30:09;;;;;;;8.23;6.15;;;;;;;15.55;72.70;97009.41;127669;1092;114024;-94
2021/06/17 03:32:41;;;;;;;9.03;6.60;;;;;;;15.58;72.79;97012.27;127738;1093;24918;-92
2021/06/17 03:35:16;;;;;;;8.75;6.63;;;;;;;15.65;72.62;97011.91;127740;1093;114658;-94
2021/06/17 03:37:52;;;;;;;9.50;6.80;;;;;;;15.68;72.73;97020.10;127878;1092;29277;-95
2021/06/17 03:40:25;;;;;;;8.05;6.33;;;;;;;15.70;72.72;97022.47;127814;1093;30494;-93
2021/06/17 03:42:57;;;;;;;9.05;5.95;;;;;;;15.74;72.45;97018.09;127765;1093;114140;-93
2021/06/17 03:45:31;;;;;;;10.38;5.35;;;;;;;15.79;72.84;97018.00;127855;1093;26845;-94
2021/06/17 03:48:03;;;;;;;7.85;5.60;;;;;;;15.82;72.50;97017.40;127753;1092;114481;-93
2021/06/17 03:50:36;;;;;;;8.45;5.85;;;;;;;15.85;72.55;97014.11;127862;1093;27678;-94
2021/06/17 03:53:08;;;;;;;8.15;6.35;;;;;;;15.87;72.62;97017.27;127882;1092;24912;-93
2021/06/17 03:55:43;;;;;;;8.25;6.53;;;;;;;15.94;72.67;97011.52;127725;1093;114215;-94
2021/06/17 03:58:14;;;;;;;6.83;6.10;;;;;;;16.01;72.61;97010.00;127753;1093;25919;-96
2021/06/17 04:00:46;;;;;;;10.08;6.48;;;;;;;16.11;72.85;97013.53;127764;1093;113525;-94
2021/06/17 04:03:19;;;;;;;9.08;5.78;;;;;;;16.20;72.78;97017.08;127851;1093;32615;-93
2021/06/17 04:05:51;;;;;;;8.63;5.78;;;;;;;16.28;72.15;97009.09;127713;1092;113678;-94
2021/06/17 04:08:28;;;;;;;8.53;5.00;;;;;;;16.37;72.36;97011.05;127877;1093;26142;-93
2021/06/17 04:11:07;;;;;;;7.93;5.25;;;;;;;16.44;72.05;97008.71;127857;1092;24502;-92
2021/06/17 04:13:43;;;;;;;6.83;5.13;;;;;;;16.52;71.68;97016.80;127824;1093;114250;-92
2021/06/17 04:16:21;;;;;;;9.40;5.80;;;;;;;16.61;71.61;97014.98;127834;1092;26492;-93
2021/06/17 04:18:54;;;;;;;7.70;5.20;;;;;;;16.72;71.38;97017.41;127783;1093;114013;-93
2021/06/17 04:21:26;;;;;;;9.43;5.73;;;;;;;16.81;71.25;97010.22;127901;1093;24002;-93
2021/06/17 04:24:00;;;;;;;7.68;5.20;;;;;;;16.92;71.15;97008.86;127765;1093;113776;-95
2021/06/17 04:26:32;;;;;;;9.85;5.43;;;;;;;17.02;70.86;97013.91;127860;1093;28126;-92
2021/06/17 04:29:04;;;;;;;7.90;5.13;;;;;;;17.15;70.71;97021.05;127904;1093;22793;-93
2021/06/17 04:31:36;;;;;;;8.15;5.18;;;;;;;17.27;70.43;97011.64;127650;1093;112713;-93
2021/06/17 04:34:08;;;;;;;6.85;4.85;;;;;;;17.36;70.36;97009.78;127760;1093;26966;-92
2021/06/17 04:36:41;;;;;;;7.30;4.88;;;;;;;17.44;70.02;97017.04;127710;1093;113672;-93
2021/06/17 04:39:13;;;;;;;6.38;4.65;;;;;;;17.54;70.10;97011.39;127841;1093;29236;-92
2021/06/17 04:41:46;;;;;;;6.50;4.75;;;;;;;17.63;69.89;97014.89;127763;1093;114218;-93
2021/06/17 04:44:17;;;;;;;6.93;4.98;;;;;;;17.75;69.81;97014.30;127852;1093;24153;-94
2021/06/17 04:46:49;;;;;;;7.63;5.18;;;;;;;17.82;69.36;97017.30;127810;1093;26303;-94
2021/06/17 04:49:22;;;;;;;7.95;5.50;;;;;;;17.88;69.23;97016.05;127729;1093;114257;-93
2021/06/17 04:51:56;;;;;;;8.28;5.43;;;;;;;17.91;68.88;97025.36;127817;1093;22805;-95
2021/06/17 04:54:27;;;;;;;7.78;5.08;;;;;;;17.96;68.92;97023.30;127745;1093;113543;-94
2021/06/17 04:56:59;;;;;;;7.88;5.40;;;;;;;18.02;68.93;97023.95;127637;1092;43086;-94
2021/06/17 04:59:30;;;;;;;7.23;5.28;;;;;;;18.09;68.74;97032.30;127717;1093;113725;-95
2021/06/17 05:02:02;;;;;;;7.93;5.43;;;;;;;18.16;68.54;97032.63;127840;1093;27770;-94
2021/06/17 05:04:35;;;;;;;9.58;5.53;;;;;;;18.28;68.57;97035.44;127852;1093;27321;-93
2021/06/17 05:07:24;;;;;;;6.83;5.68;;;;;;;18.42;68.19;97040.63;127847;1092;114097;-93
2021/06/17 05:12:45;;;;;;;7.95;5.45;;;;;;;18.69;67.62;97044.88;127709;1093;113531;-95
2021/06/17 05:15:16;;;;;;;7.58;5.73;;;;;;;18.81;67.30;97047.70;127810;1093;32209;-95
2021/06/17 05:17:48;;;;;;;8.38;5.05;;;;;;;19.00;67.33;97050.00;127759;1093;113724;-94
2021/06/17 05:20:19;;;;;;;8.58;5.90;;;;;;;19.19;67.12;97049.64;127878;1093;24429;-94
2021/06/17 05:22:51;;;;;;;7.53;5.60;;;;;;;19.50;67.02;97049.33;127846;1092;30670;-93
2021/06/17 05:25:22;;;;;;;10.10;6.30;;;;;;;20.13;67.15;97047.52;127789;1093;114185;-92
2021/06/17 05:27:54;;;;;;;6.73;5.23;;;;;;;20.96;66.08;97049.27;127773;1093;24268;-94
2021/06/17 05:30:25;;;;;;;6.85;5.25;;;;;;;21.74;64.80;97059.91;127927;1093;113496;-93
2021/06/17 05:32:57;;;;;;;9.00;6.05;;;;;;;22.22;63.21;97059.03;127868;1093;34030;-94
2021/06/17 05:35:28;;;;;;;7.00;4.93;;;;;;;22.67;62.14;97063.38;127762;1093;113877;-94
2021/06/17 05:38:00;;;;;;;8.15;5.23;;;;;;;23.16;61.15;97062.33;127895;1092;39818;-94
2021/06/17 05:40:32;;;;;;;5.70;4.85;;;;;;;23.56;60.51;97051.31;127865;1093;30809;-93
2021/06/17 05:43:03;;;;;;;6.35;4.83;;;;;;;24.03;59.42;97053.15;127678;1092;113545;-93
2021/06/17 05:45:35;;;;;;;7.00;4.80;;;;;;;24.40;58.41;97046.22;127865;1093;27490;-92
2021/06/17 05:48:07;;;;;;;7.33;4.88;;;;;;;24.78;57.74;97058.96;127807;1093;113548;-92
2021/06/17 05:50:39;;;;;;;7.00;4.88;;;;;;;25.06;56.92;97066.85;127930;1093;23633;-93
2021/06/17 05:53:11;;;;;;;5.78;4.50;;;;;;;25.21;56.21;97070.59;127883;1093;45879;-90
2021/06/17 05:55:43;;;;;;;6.00;4.33;;;;;;;25.70;55.59;97070.61;127791;1093;113360;-94
2021/06/17 05:58:14;;;;;;;6.75;4.28;;;;;;;25.79;53.87;97075.80;127848;1091;26870;-94
2021/06/17 06:00:46;;;;;;;5.93;4.25;;;;;;;26.01;53.84;97085.02;127623;1092;113586;-94
2021/06/17 06:03:17;;;;;;;7.30;4.18;;;;;;;26.82;53.57;97093.44;127832;1093;25623;-92
2021/06/17 06:05:49;;;;;;;6.93;4.65;;;;;;;27.12;51.88;97090.66;127719;1093;113911;-92
2021/06/17 06:08:20;;;;;;;7.60;4.33;;;;;;;27.64;51.30;97088.03;127874;1092;40278;-93
2021/06/17 06:10:51;;;;;;;5.73;4.20;;;;;;;28.12;50.70;97085.98;127770;1093;30548;-94
2021/06/17 06:13:23;;;;;;;7.10;4.35;;;;;;;28.96;50.02;97087.53;127772;1093;113871;-94
2021/06/17 06:15:55;;;;;;;7.68;4.70;;;;;;;29.58;48.70;97082.95;127864;1093;27293;-93
2021/06/17 06:18:26;;;;;;;7.23;4.60;;;;;;;29.89;47.96;97086.82;127776;1093;114221;-92
2021/06/17 06:20:58;;;;;;;7.28;4.33;;;;;;;30.35;47.35;97086.73;127737;1093;29437;-94
2021/06/17 06:23:30;;;;;;;6.98;4.15;;;;;;;30.75;46.12;97081.89;127743;1093;114298;-93
2021/06/17 06:26:02;;;;;;;6.33;3.93;;;;;;;30.99;45.90;97092.72;127894;1093;24199;-93
2021/06/17 06:28:33;;;;;;;5.70;4.18;;;;;;;31.00;44.40;97088.80;127917;1093;28140;-94
2021/06/17 06:31:05;;;;;;;8.73;4.40;;;;;;;31.21;44.55;97085.16;127791;1093;113562;-95
2021/06/17 06:33:36;;;;;;;6.25;3.80;;;;;;;31.71;44.67;97089.47;127929;1093;24621;-93
2021/06/17 06:36:09;;;;;;;5.85;4.20;;;;;;;32.33;43.30;97088.49;127705;1093;113971;-94
2021/06/17 06:38:40;;;;;;;5.40;3.80;;;;;;;32.33;42.39;97088.49;127940;1093;43254;-94
2021/06/17 06:41:12;;;;;;;4.50;3.70;;;;;;;32.28;42.45;97089.73;127820;1093;29333;-95
2021/06/17 06:43:43;;;;;;;5.55;3.88;;;;;;;32.28;41.41;97086.98;127611;1093;114186;-93
2021/06/17 06:46:14;;;;;;;4.68;3.85;;;;;;;32.47;41.21;97094.59;127838;1093;25838;-94
2021/06/17 06:48:46;;;;;;;5.75;4.08;;;;;;;32.49;40.75;97100.44;127742;1093;113724;-93
2021/06/17 06:51:17;;;;;;;5.30;4.50;;;;;;;32.17;40.17;97098.04;127856;1092;25804;-93
2021/06/17 06:53:49;;;;;;;5.65;4.18;;;;;;;32.25;40.44;97101.50;127783;1093;113711;-94
2021/06/17 06:56:20;;;;;;;8.95;3.80;;;;;;;32.74;40.65;97105.63;127831;1093;27593;-94
2021/06/17 06:58:53;;;;;;;4.63;3.48;;;;;;;33.32;40.38;97103.66;127817;1093;26150;-93
2021/06/17 07:01:25;;;;;;;5.45;4.03;;;;;;;33.92;38.69;97098.41;127738;1093;113560;-92
2021/06/17 07:03:56;;;;;;;8.35;4.53;;;;;;;33.87;38.87;97094.17;127893;1093;34089;-92
2021/06/17 07:06:28;;;;;;;7.38;4.43;;;;;;;34.28;38.88;97095.00;127670;1093;114373;-92
2021/06/17 07:09:00;;;;;;;5.03;3.75;;;;;;;34.76;38.30;97095.20;127812;1093;28210;-93
2021/06/17 07:11:31;;;;;;;5.48;3.70;;;;;;;34.91;37.15;97100.44;127738;1092;113665;-93
2021/06/17 07:14:04;;;;;;;4.63;4.00;;;;;;;35.21;36.70;97096.64;127866;1092;28082;-92
2021/06/17 07:16:36;;;;;;;6.43;4.37;;;;;;;35.21;35.25;97108.44;127982;1092;27944;-93
2021/06/17 07:19:07;;;;;;;5.20;4.28;;;;;;;33.83;31.43;97103.66;127870;1093;113493;-93
2021/06/17 07:21:39;;;;;;;7.13;3.80;;;;;;;32.06;32.97;97089.14;127936;1092;42750;-93
2021/06/17 07:24:11;;;;;;;7.05;4.58;;;;;;;31.12;33.77;97095.77;127819;1092;113535;-93
2021/06/17 07:26:43;;;;;;;8.13;4.20;;;;;;;30.54;34.14;97099.16;127831;1093;27396;-93
2021/06/17 07:29:15;;;;;;;9.53;4.60;;;;;;;29.74;34.05;97107.92;127878;1093;31420;-94
2021/06/17 07:31:46;;;;;;;5.55;4.05;;;;;;;29.15;34.09;97102.80;127726;1093;113339;-93
2021/06/17 07:34:18;;;;;;;5.80;4.10;;;;;;;28.93;35.16;97099.23;127853;1093;24271;-92
2021/06/17 07:36:49;;;;;;;5.98;4.13;;;;;;;28.58;35.37;97094.44;127715;1092;113524;-93
2021/06/17 07:39:21;;;;;;;7.43;4.68;;;;;;;28.35;35.66;97097.45;127934;1093;28091;-93
2021/06/17 07:41:52;;;;;;;4.00;3.10;;;;;;;28.52;35.81;97086.98;127747;1093;113676;-93
2021/06/17 07:44:24;;;;;;;5.40;3.55;;;;;;;28.37;34.98;97108.75;127751;1093;27764;-93
2021/06/17 07:46:55;;;;;;;6.90;3.63;;;;;;;28.28;35.59;97108.30;127847;1093;31351;-93
2021/06/17 07:49:27;;;;;;;6.10;3.23;;;;;;;28.13;34.46;97116.76;127788;1093;113611;-92
2021/06/17 07:51:59;;;;;;;5.48;3.40;;;;;;;27.80;34.65;97100.20;127841;1092;33832;-92
2021/06/17 07:54:31;;;;;;;7.05;3.85;;;;;;;27.66;35.50;97094.66;127759;1092;113458;-94
2021/06/17 07:57:02;;;;;;;5.43;3.68;;;;;;;27.90;36.06;97101.45;127843;1093;31041;-93
2021/06/17 07:59:34;;;;;;;8.18;4.08;;;;;;;28.20;36.08;97093.05;127778;1093;113843;-93
2021/06/17 08:02:05;;;;;;;4.20;3.33;;;;;;;28.18;35.27;97092.66;127873;1093;24310;-93
2021/06/17 08:04:37;;;;;;;4.73;3.23;;;;;;;27.92;35.18;97101.84;127953;1093;26083;-94
2021/06/17 08:07:08;;;;;;;5.08;3.58;;;;;;;27.85;35.81;97099.06;127811;1092;113526;-94
2021/06/17 08:09:40;;;;;;;5.53;4.00;;;;;;;27.84;37.04;97096.72;127988;1093;26844;-94
2021/06/17 08:12:12;;;;;;;5.83;4.23;;;;;;;27.99;36.18;97101.09;127770;1093;114151;-93
2021/06/17 08:14:44;;;;;;;7.38;3.63;;;;;;;27.97;36.65;97101.48;127845;1093;25921;-94
2021/06/17 08:17:15;;;;;;;5.10;3.50;;;;;;;28.07;35.99;97097.27;127837;1093;29857;-93
2021/06/17 08:19:47;;;;;;;6.43;3.50;;;;;;;28.39;36.73;97097.45;127748;1093;114242;-93
2021/06/17 08:22:24;;;;;;;4.88;3.65;;;;;;;28.85;36.38;97108.53;127847;1093;28886;-94
2021/06/17 08:24:56;;;;;;;5.08;3.25;;;;;;;29.10;36.23;97092.25;127771;1093;113715;-92
2021/06/17 08:27:28;;;;;;;4.80;3.20;;;;;;;29.40;34.53;97089.15;127863;1093;24828;-93
2021/06/17 08:29:59;;;;;;;4.50;3.50;;;;;;;29.26;34.40;97106.30;127733;1093;115423;-94
2021/06/17 08:32:31;;;;;;;4.33;3.15;;;;;;;28.79;34.45;97101.12;127849;1093;28647;-93
2021/06/17 08:35:02;;;;;;;4.13;3.58;;;;;;;28.76;34.15;97102.67;127822;1093;29089;-92
2021/06/17 08:37:34;;;;;;;5.35;3.53;;;;;;;28.57;34.31;97105.70;127748;1093;113532;-92
2021/06/17 08:40:07;;;;;;;4.68;3.70;;;;;;;28.50;35.72;97105.69;127865;1093;27195;-92
2021/06/17 08:42:39;;;;;;;3.37;2.90;;;;;;;28.52;34.17;97109.59;127854;1093;112598;-93
2021/06/17 08:45:13;;;;;;;5.00;3.33;;;;;;;28.14;34.22;97123.77;127922;1093;28831;-95
2021/06/17 08:47:46;;;;;;;4.23;3.40;;;;;;;27.66;35.44;97121.90;127767;1093;113683;-92
2021/06/17 08:50:19;;;;;;;4.33;3.70;;;;;;;27.13;35.57;97119.44;127854;1093;25114;-91
2021/06/17 08:52:51;;;;;;;5.15;4.00;;;;;;;26.80;36.06;97116.73;127871;1092;27730;-91
2021/06/17 08:55:25;;;;;;;5.50;3.48;;;;;;;26.60;36.44;97116.09;127756;1093;113504;-91
2021/06/17 08:57:58;;;;;;;4.73;3.50;;;;;;;26.41;37.26;97116.26;127863;1093;25578;-92
2021/06/17 09:00:48;;;;;;;5.90;3.68;;;;;;;26.31;35.85;97109.49;127740;1092;113519;-92
2021/06/17 09:03:20;;;;;;;5.88;3.80;;;;;;;26.16;36.55;97107.73;127846;1093;28324;-92
2021/06/17 09:05:56;;;;;;;4.80;2.95;;;;;;;26.14;37.26;97105.39;127750;1093;113763;-93
2021/06/17 09:08:30;;;;;;;5.03;2.90;;;;;;;25.98;36.15;97107.50;127899;1093;31281;-93
2021/06/17 09:11:03;;;;;;;3.90;3.03;;;;;;;25.87;37.06;97106.55;127890;1093;25757;-93
2021/06/17 09:13:36;;;;;;;4.03;3.20;;;;;;;26.18;38.07;97105.43;127732;1093;114357;-92
2021/06/17 09:16:09;;;;;;;4.85;3.38;;;;;;;26.49;37.43;97101.61;127896;1093;28598;-93
2021/06/17 09:18:43;;;;;;;4.38;3.35;;;;;;;26.27;36.88;97106.73;127824;1093;113490;-93
2021/06/17 09:21:14;;;;;;;8.13;3.55;;;;;;;26.12;38.38;97101.48;127816;1092;49680;-93
2021/06/17 09:23:49;;;;;;;5.15;4.10;;;;;;;25.94;38.55;97101.23;127745;1093;113703;-93
2021/06/17 09:26:23;;;;;;;5.78;3.78;;;;;;;26.04;40.10;97101.39;127819;1093;33493;-94
2021/06/17 09:29:00;;;;;;;5.70;3.93;;;;;;;26.31;38.96;97099.41;127853;1093;30202;-95
2021/06/17 09:31:34;;;;;;;6.45;4.13;;;;;;;26.26;39.39;97110.61;127740;1093;113500;-92
2021/06/17 09:34:07;;;;;;;7.53;4.10;;;;;;;26.40;37.99;97106.53;127706;1093;33678;-93
2021/06/17 09:36:40;;;;;;;4.78;3.65;;;;;;;26.25;38.20;97100.89;127800;1092;114211;-94
2021/06/17 09:39:18;;;;;;;4.65;3.65;;;;;;;26.31;39.01;97096.69;127874;1093;29232;-92
2021/06/17 09:41:51;;;;;;;4.45;3.58;;;;;;;26.62;39.31;97102.94;127725;1091;114179;-93
2021/06/17 09:44:33;;;;;;;4.68;3.38;;;;;;;26.59;39.15;97103.66;127832;1093;27244;-93
2021/06/17 09:47:09;;;;;;;6.68;3.88;;;;;;;26.38;37.47;97112.34;127861;1093;26434;-93
2021/06/17 09:49:44;;;;;;;4.90;3.55;;;;;;;26.26;37.79;97112.54;127784;1093;113463;-93
2021/06/17 09:52:18;;;;;;;3.93;3.40;;;;;;;26.38;38.49;97114.28;127884;1093;29707;-94
2021/06/17 09:54:50;;;;;;;5.40;4.10;;;;;;;26.49;38.97;97110.55;127775;1093;113514;-93
2021/06/17 09:57:23;;;;;;;7.18;4.40;;;;;;;26.49;38.25;97094.23;127865;1092;28440;-93
2021/06/17 10:00:07;;;;;;;4.53;3.85;;;;;;;26.16;38.73;97097.65;127775;1093;113695;-93
2021/06/17 10:02:39;;;;;;;4.75;3.05;;;;;;;26.42;39.72;97094.14;127914;1093;26190;-92
2021/06/17 10:05:18;;;;;;;5.10;3.68;;;;;;;26.43;39.02;97090.27;127900;1093;28438;-93
2021/06/17 10:07:51;;;;;;;5.30;3.75;;;;;;;26.75;40.43;97092.59;127777;1093;113385;-93
2021/06/17 10:10:28;;;;;;;4.95;3.98;;;;;;;27.02;40.03;97083.16;127854;1093;30491;-92
2021/06/17 10:13:03;;;;;;;6.58;4.30;;;;;;;26.99;39.20;97089.33;127750;1092;113584;-92
2021/06/17 10:15:35;;;;;;;5.80;3.90;;;;;;;26.65;39.33;97079.65;127848;1093;30486;-93
2021/06/17 10:18:07;;;;;;;5.83;3.85;;;;;;;26.59;40.86;97081.90;127754;1093;113740;-92
2021/06/17 10:20:40;;;;;;;5.60;3.90;;;;;;;26.72;40.44;97079.72;127950;1093;24165;-93
2021/06/17 10:23:15;;;;;;;7.63;4.43;;;;;;;26.69;40.32;97081.25;127847;1093;28001;-92
2021/06/17 10:25:48;;;;;;;6.23;3.90;;;;;;;26.66;39.49;97075.77;127711;1093;113585;-92
2021/06/17 10:28:44;;;;;;;6.60;4.43;;;;;;;26.32;40.14;97089.31;127913;1092;26833;-93
2021/06/17 10:31:36;;;;;;;7.05;4.28;;;;;;;26.31;40.80;97085.03;127775;1093;113638;-94
2021/06/17 10:34:38;;;;;;;5.90;4.05;;;;;;;26.34;41.48;97081.59;127909;1093;38743;-92
2021/06/17 10:37:13;;;;;;;5.33;4.03;;;;;;;26.57;41.88;97084.99;127843;1093;113666;-92
2021/06/17 10:39:48;;;;;;;7.13;4.28;;;;;;;26.91;41.97;97076.83;127864;1093;33582;-93
2021/06/17 10:42:34;;;;;;;7.28;4.20;;;;;;;27.04;40.95;97080.88;127727;1093;114301;-94
2021/06/17 10:45:12;;;;;;;6.18;4.13;;;;;;;26.86;40.55;97082.59;127822;1093;34424;-92
2021/06/17 10:48:06;;;;;;;5.23;4.20;;;;;;;26.89;40.35;97090.03;127783;1093;113917;-93
2021/06/17 10:50:53;;;;;;;5.83;4.30;;;;;;;26.97;41.14;97088.92;127920;1092;29220;-93
2021/06/17 10:53:33;;;;;;;5.45;4.45;;;;;;;27.01;40.85;97083.55;127899;1093;25501;-94
2021/06/17 10:56:08;;;;;;;6.40;4.50;;;;;;;27.20;40.49;97073.25;127750;1093;112541;-94
2021/06/17 10:59:01;;;;;;;6.60;4.05;;;;;;;27.33;40.55;97072.97;127903;1093;24648;-94
2021/06/17 11:01:39;;;;;;;6.43;4.38;;;;;;;26.89;38.92;97077.20;127768;1093;113583;-94
2021/06/17 11:04:15;;;;;;;6.00;3.75;;;;;;;26.83;41.37;97075.96;127915;1093;29643;-93
2021/06/17 11:07:17;;;;;;;5.73;3.63;;;;;;;27.11;40.82;97075.48;127740;1093;113566;-93
2021/06/17 11:10:05;;;;;;;5.38;3.80;;;;;;;27.33;40.04;97075.70;127806;1093;28052;-94
2021/06/17 11:12:59;;;;;;;7.50;4.30;;;;;;;27.20;39.76;97070.53;127806;1093;113596;-94
2021/06/17 11:15:49;;;;;;;5.95;3.83;;;;;;;27.28;41.18;97062.41;127830;1093;30817;-95
2021/06/17 11:18:57;;;;;;;6.45;3.78;;;;;;;27.51;40.77;97065.72;127728;1093;113850;-93
2021/06/17 11:21:47;;;;;;;6.03;4.18;;;;;;;27.66;40.72;97067.41;127836;1093;27839;-93
2021/06/17 11:24:35;;;;;;;5.55;4.33;;;;;;;27.61;38.82;97069.69;127724;1093;113989;-93
2021/06/17 11:27:32;;;;;;;5.20;4.25;;;;;;;27.41;39.62;97071.85;127853;1093;29041;-93
2021/06/17 11:30:05;;;;;;;6.53;4.53;;;;;;;27.23;39.73;97063.55;127792;1093;113845;-94
2021/06/17 11:32:37;;;;;;;6.48;4.20;;;;;;;27.35;40.62;97063.27;127942;1092;27076;-93
2021/06/17 11:35:22;;;;;;;5.90;4.03;;;;;;;27.50;39.54;97066.88;127928;1093;29035;-93
2021/06/17 11:37:54;;;;;;;5.78;4.20;;;;;;;27.52;40.09;97067.28;127727;1093;113736;-93
2021/06/17 11:40:26;;;;;;;4.85;4.13;;;;;;;27.62;40.47;97061.14;127844;1093;57967;-92
2021/06/17 11:42:59;;;;;;;5.28;4.00;;;;;;;27.68;40.55;97058.86;127716;1093;113739;-94
2021/06/17 11:45:36;;;;;;;5.63;4.33;;;;;;;27.78;40.17;97052.70;127829;1093;31038;-93
2021/06/17 11:48:11;;;;;;;5.13;3.98;;;;;;;27.91;40.24;97042.28;127824;1093;113819;-95
2021/06/17 11:50:47;;;;;;;7.13;4.18;;;;;;;27.92;40.59;97046.56;127860;1093;31817;-94
2021/06/17 11:53:20;;;;;;;6.63;4.33;;;;;;;28.02;40.62;97051.30;128435;1092;27926;-92
2021/06/17 11:55:54;;;;;;;4.95;3.98;;;;;;;28.12;40.21;97045.09;127829;1093;113529;-94
2021/06/17 11:58:31;;;;;;;8.50;4.50;;;;;;;28.18;40.32;97045.53;127873;1093;27302;-95